Atlantida Azul — CSYG2 — position and weather

sailwx.info

Track history (hours):
 
Tides and Currents Weather Stations Pressure Air Temp Water Temp Dewpoint Dewpoint Depression Visibility Wind Speed Wind Dir Waves Ship Positions

Atlantida Azul

Last reported at 2015-Jan-25 20:21 UTC. Time now 2015-Jan-26 10:32 UTC.
Position N 37°57' W 008°52'.

Length 16 m.

Type: Pilot. MMSI: 263672880.

Date/timePositionNaut miles runAvg speedWind from/ knotsBaromVisibWave heightAir tempDewpointWater temp
2015-Jan-25 20:21N 37°57' W 008°52'1 1.5
2015-Jan-25 19:33N 37°57' W 008°53'3 2.8
2015-Jan-25 18:33N 37°54' W 008°51'1 0.4
2015-Jan-25 16:33N 37°54' W 008°53'3 2.7
2015-Jan-25 15:34N 37°57' W 008°53'3 0.1
2015-Jan-24 20:33N 37°56' W 008°50'1 0.7
2015-Jan-24 19:30N 37°56' W 008°51'3 2.8
2015-Jan-24 18:32N 37°54' W 008°51'3 1.0
2015-Jan-24 15:04N 37°57' W 008°52'1 1.8
2015-Jan-24 14:33N 37°56' W 008°53'1 0.4
2015-Jan-24 12:14N 37°57' W 008°52'2 2.6
2015-Jan-24 11:33N 37°55' W 008°53'0 0.1
2015-Jan-24 08:32N 37°55' W 008°53'2 1.9
2015-Jan-24 07:33N 37°56' W 008°51'0 0.1
2015-Jan-24 04:15N 37°56' W 008°51'2 0.5
2015-Jan-24 00:24N 37°57' W 008°53'1 1.0
2015-Jan-23 23:05N 37°56' W 008°53'2 2.9
2015-Jan-23 22:31N 37°57' W 008°52'0 0.0
2015-Jan-23 21:32N 37°57' W 008°52'0 0.4
2015-Jan-23 20:33N 37°56' W 008°52'0 0.4
2015-Jan-23 19:33N 37°57' W 008°52'0 0.0
2015-Jan-23 17:27N 37°57' W 008°52'1 0.3
2015-Jan-23 13:33N 37°57' W 008°53'1 0.6
2015-Jan-23 11:31N 37°57' W 008°52'1 0.8
2015-Jan-23 10:33N 37°57' W 008°53'4 1.8
2015-Jan-23 08:33N 37°54' W 008°50'2 2.1
2015-Jan-23 07:32N 37°56' W 008°51'1 0.8
2015-Jan-23 06:21N 37°57' W 008°52'1 0.7
2015-Jan-23 05:33N 37°56' W 008°51'1 0.3
2015-Jan-23 00:33N 37°55' W 008°53'1 0.3
2015-Jan-22 22:33N 37°55' W 008°53'2 0.7
2015-Jan-22 19:24N 37°57' W 008°52'1 0.8
2015-Jan-22 18:30N 37°56' W 008°51'1 0.3
2015-Jan-22 16:33N 37°56' W 008°52'1 0.1
2015-Jan-22 11:13N 37°57' W 008°52'0 0.7
2015-Jan-22 10:33N 37°57' W 008°52'0 0.5
2015-Jan-22 09:32N 37°57' W 008°52'3 3.1
2015-Jan-22 08:33N 37°54' W 008°51'2 0.2
2015-Jan-21 21:30N 37°56' W 008°51'2 1.9
2015-Jan-21 20:33N 37°57' W 008°53'0 0.2
2015-Jan-21 19:33N 37°57' W 008°53'1 1.0
2015-Jan-21 18:24N 37°57' W 008°52'1 1.2
2015-Jan-21 17:33N 37°57' W 008°53'0 0.4
2015-Jan-21 16:32N 37°57' W 008°53'0 0.2
2015-Jan-21 15:33N 37°57' W 008°53'3 1.7
2015-Jan-21 13:33N 37°54' W 008°51'2 0.9
2015-Jan-21 11:19N 37°56' W 008°51'0 0.1
2015-Jan-21 10:33N 37°56' W 008°51'0 0.0
2015-Jan-21 05:07N 37°56' W 008°51'1 2.5
2015-Jan-21 04:33N 37°56' W 008°53'1 1.1
2015-Jan-21 03:34N 37°56' W 008°51'1 0.7
2015-Jan-21 02:32N 37°56' W 008°51'2 2.3
2015-Jan-21 01:32N 37°54' W 008°52'1 1.3
2015-Jan-21 00:33N 37°55' W 008°51'1 0.5
2015-Jan-20 22:32N 37°56' W 008°51'2 1.7
2015-Jan-20 21:32N 37°57' W 008°53'2 1.3
2015-Jan-20 20:16N 37°56' W 008°51'0 0.4
2015-Jan-20 19:33N 37°56' W 008°51'0 0.0
2015-Jan-20 12:32N 37°56' W 008°51'2 1.7
2015-Jan-20 11:33N 37°57' W 008°52'1 1.3
2015-Jan-20 10:33N 37°56' W 008°51'0 0.0
2015-Jan-19 19:10N 37°56' W 008°51'2 2.9
2015-Jan-19 18:33N 37°56' W 008°53'1 0.2
2015-Jan-19 13:25N 37°57' W 008°52'1 1.4
2015-Jan-19 12:33N 37°57' W 008°53'1 1.2
2015-Jan-19 11:33N 37°57' W 008°52'1 1.1
2015-Jan-19 10:32N 37°56' W 008°51'2 0.5
2015-Jan-19 07:33N 37°56' W 008°53'2 0.4
2015-Jan-19 03:05N 37°55' W 008°51'1 0.4
2015-Jan-19 00:33N 37°56' W 008°51'1 0.9
2015-Jan-18 23:33N 37°55' W 008°51'1 1.4
2015-Jan-18 22:31N 37°57' W 008°52'0 0.0
2015-Jan-18 21:31N 37°57' W 008°52'1 0.9
2015-Jan-18 20:32N 37°56' W 008°51'0 0.0
2015-Jan-18 11:20N 37°56' W 008°51'1 0.4
2015-Jan-18 09:08N 37°57' W 008°52'1 2.2
2015-Jan-18 08:33N 37°57' W 008°53'2 0.9
2015-Jan-18 06:14N 37°56' W 008°51'0 0.0
2015-Jan-18 01:19N 37°56' W 008°51'0 0.0
2015-Jan-18 00:33N 37°56' W 008°51'2 1.5
2015-Jan-17 23:33N 37°57' W 008°53'1 0.8
2015-Jan-17 22:32N 37°57' W 008°52'1 1.0
2015-Jan-17 21:33N 37°57' W 008°53'2 0.9
2015-Jan-17 19:33N 37°56' W 008°51'2 1.9
2015-Jan-17 18:32N 37°57' W 008°53'2 1.9
2015-Jan-17 17:32N 37°56' W 008°51'0 0.0
2015-Jan-17 11:25N 37°56' W 008°51'0 0.0
2015-Jan-17 04:15N 37°56' W 008°51'2 2.6
2015-Jan-17 03:33N 37°57' W 008°53'0 0.2
2015-Jan-17 02:33N 37°57' W 008°53'0 0.0
2015-Jan-17 01:33N 37°57' W 008°53'2 0.9
2015-Jan-16 23:17N 37°56' W 008°51'0 0.0
2015-Jan-16 19:33N 37°56' W 008°51'2 1.8
2015-Jan-16 18:33N 37°57' W 008°53'1 1.4
2015-Jan-16 17:33N 37°56' W 008°52'1 0.8
2015-Jan-16 16:31N 37°56' W 008°51'2 0.4
2015-Jan-16 10:33N 37°55' W 008°54'2 2.3
2015-Jan-16 09:32N 37°57' W 008°52'1 0.1
2015-Jan-16 01:18N 37°56' W 008°51'0 0.3
2015-Jan-16 00:33N 37°56' W 008°51'  
Track history (hours):
 
Tides and Currents Weather Stations Pressure Air Temp Water Temp Dewpoint Dewpoint Depression Visibility Wind Speed Wind Dir Waves Ship Positions

Atlantida Azul

Last reported at 2015-Jan-25 20:21 UTC. Time now 2015-Jan-26 10:32 UTC.
Position N 37°57' W 008°52'.

Length 16 m.

Type: Pilot. MMSI: 263672880.

Date/timePositionNaut miles runAvg speedWind from/ knotsBaromVisibWave heightAir tempDewpointWater temp
2015-Jan-25 20:21N 37°57' W 008°52'1 1.5
2015-Jan-25 19:33N 37°57' W 008°53'3 2.8
2015-Jan-25 18:33N 37°54' W 008°51'1 0.4
2015-Jan-25 16:33N 37°54' W 008°53'3 2.7
2015-Jan-25 15:34N 37°57' W 008°53'3 0.1
2015-Jan-24 20:33N 37°56' W 008°50'1 0.7
2015-Jan-24 19:30N 37°56' W 008°51'3 2.8
2015-Jan-24 18:32N 37°54' W 008°51'3 1.0
2015-Jan-24 15:04N 37°57' W 008°52'1 1.8
2015-Jan-24 14:33N 37°56' W 008°53'1 0.4
2015-Jan-24 12:14N 37°57' W 008°52'2 2.6
2015-Jan-24 11:33N 37°55' W 008°53'0 0.1
2015-Jan-24 08:32N 37°55' W 008°53'2 1.9
2015-Jan-24 07:33N 37°56' W 008°51'0 0.1
2015-Jan-24 04:15N 37°56' W 008°51'2 0.5
2015-Jan-24 00:24N 37°57' W 008°53'1 1.0
2015-Jan-23 23:05N 37°56' W 008°53'2 2.9
2015-Jan-23 22:31N 37°57' W 008°52'0 0.0
2015-Jan-23 21:32N 37°57' W 008°52'0 0.4
2015-Jan-23 20:33N 37°56' W 008°52'0 0.4
2015-Jan-23 19:33N 37°57' W 008°52'0 0.0
2015-Jan-23 17:27N 37°57' W 008°52'1 0.3
2015-Jan-23 13:33N 37°57' W 008°53'1 0.6
2015-Jan-23 11:31N 37°57' W 008°52'1 0.8
2015-Jan-23 10:33N 37°57' W 008°53'4 1.8
2015-Jan-23 08:33N 37°54' W 008°50'2 2.1
2015-Jan-23 07:32N 37°56' W 008°51'1 0.8
2015-Jan-23 06:21N 37°57' W 008°52'1 0.7
2015-Jan-23 05:33N 37°56' W 008°51'1 0.3
2015-Jan-23 00:33N 37°55' W 008°53'1 0.3
2015-Jan-22 22:33N 37°55' W 008°53'2 0.7
2015-Jan-22 19:24N 37°57' W 008°52'1 0.8
2015-Jan-22 18:30N 37°56' W 008°51'1 0.3
2015-Jan-22 16:33N 37°56' W 008°52'1 0.1
2015-Jan-22 11:13N 37°57' W 008°52'0 0.7
2015-Jan-22 10:33N 37°57' W 008°52'0 0.5
2015-Jan-22 09:32N 37°57' W 008°52'3 3.1
2015-Jan-22 08:33N 37°54' W 008°51'2 0.2
2015-Jan-21 21:30N 37°56' W 008°51'2 1.9
2015-Jan-21 20:33N 37°57' W 008°53'0 0.2
2015-Jan-21 19:33N 37°57' W 008°53'1 1.0
2015-Jan-21 18:24N 37°57' W 008°52'1 1.2
2015-Jan-21 17:33N 37°57' W 008°53'0 0.4
2015-Jan-21 16:32N 37°57' W 008°53'0 0.2
2015-Jan-21 15:33N 37°57' W 008°53'3 1.7
2015-Jan-21 13:33N 37°54' W 008°51'2 0.9
2015-Jan-21 11:19N 37°56' W 008°51'0 0.1
2015-Jan-21 10:33N 37°56' W 008°51'0 0.0
2015-Jan-21 05:07N 37°56' W 008°51'1 2.5
2015-Jan-21 04:33N 37°56' W 008°53'1 1.1
2015-Jan-21 03:34N 37°56' W 008°51'1 0.7
2015-Jan-21 02:32N 37°56' W 008°51'2 2.3
2015-Jan-21 01:32N 37°54' W 008°52'1 1.3
2015-Jan-21 00:33N 37°55' W 008°51'1 0.5
2015-Jan-20 22:32N 37°56' W 008°51'2 1.7
2015-Jan-20 21:32N 37°57' W 008°53'2 1.3
2015-Jan-20 20:16N 37°56' W 008°51'0 0.4
2015-Jan-20 19:33N 37°56' W 008°51'0 0.0
2015-Jan-20 12:32N 37°56' W 008°51'2 1.7
2015-Jan-20 11:33N 37°57' W 008°52'1 1.3
2015-Jan-20 10:33N 37°56' W 008°51'0 0.0
2015-Jan-19 19:10N 37°56' W 008°51'2 2.9
2015-Jan-19 18:33N 37°56' W 008°53'1 0.2
2015-Jan-19 13:25N 37°57' W 008°52'1 1.4
2015-Jan-19 12:33N 37°57' W 008°53'1 1.2
2015-Jan-19 11:33N 37°57' W 008°52'1 1.1
2015-Jan-19 10:32N 37°56' W 008°51'2 0.5
2015-Jan-19 07:33N 37°56' W 008°53'2 0.4
2015-Jan-19 03:05N 37°55' W 008°51'1 0.4
2015-Jan-19 00:33N 37°56' W 008°51'1 0.9
2015-Jan-18 23:33N 37°55' W 008°51'1 1.4
2015-Jan-18 22:31N 37°57' W 008°52'0 0.0
2015-Jan-18 21:31N 37°57' W 008°52'1 0.9
2015-Jan-18 20:32N 37°56' W 008°51'0 0.0
2015-Jan-18 11:20N 37°56' W 008°51'1 0.4
2015-Jan-18 09:08N 37°57' W 008°52'1 2.2
2015-Jan-18 08:33N 37°57' W 008°53'2 0.9
2015-Jan-18 06:14N 37°56' W 008°51'0 0.0
2015-Jan-18 01:19N 37°56' W 008°51'0 0.0
2015-Jan-18 00:33N 37°56' W 008°51'2 1.5
2015-Jan-17 23:33N 37°57' W 008°53'1 0.8
2015-Jan-17 22:32N 37°57' W 008°52'1 1.0
2015-Jan-17 21:33N 37°57' W 008°53'2 0.9
2015-Jan-17 19:33N 37°56' W 008°51'2 1.9
2015-Jan-17 18:32N 37°57' W 008°53'2 1.9
2015-Jan-17 17:32N 37°56' W 008°51'0 0.0
2015-Jan-17 11:25N 37°56' W 008°51'0 0.0
2015-Jan-17 04:15N 37°56' W 008°51'2 2.6
2015-Jan-17 03:33N 37°57' W 008°53'0 0.2
2015-Jan-17 02:33N 37°57' W 008°53'0 0.0
2015-Jan-17 01:33N 37°57' W 008°53'2 0.9
2015-Jan-16 23:17N 37°56' W 008°51'0 0.0
2015-Jan-16 19:33N 37°56' W 008°51'2 1.8
2015-Jan-16 18:33N 37°57' W 008°53'1 1.4
2015-Jan-16 17:33N 37°56' W 008°52'1 0.8
2015-Jan-16 16:31N 37°56' W 008°51'2 0.4
2015-Jan-16 10:33N 37°55' W 008°54'2 2.3
2015-Jan-16 09:32N 37°57' W 008°52'1 0.1
2015-Jan-16 01:18N 37°56' W 008°51'0 0.3
2015-Jan-16 00:33N 37°56' W 008°51'  

Dump ship's entire track history